Los Angeles (LAX/KLAX)

Information

Location
Los Angeles, CA
Local Time
22:07 / 10:07 pm
GMT Time
06:07 / 6:07 am
No FAA reported delays
METAR KLAX 140453Z 00000KT 9SM CLR 16/07 A2996 RMK AO2 SLP144 T01610072
TAF KLAX 140303Z 1403/1506 VRB03KT P6SM SCT200 FM142000 26008KT P6SM SKC FM150400 VRB03KT P6SM SKC